sensor_id;sensor_type;location;lat;lon;timestamp;temperature;humidity
15959;DHT22;8078;47.822;9.402;2022-10-31T00:01:58;15.40;99.90
15959;DHT22;8078;47.822;9.402;2022-10-31T00:04:24;15.20;99.90
15959;DHT22;8078;47.822;9.402;2022-10-31T00:06:49;15.10;99.90
15959;DHT22;8078;47.822;9.402;2022-10-31T00:09:15;14.90;99.90
15959;DHT22;8078;47.822;9.402;2022-10-31T00:11:40;14.60;99.90
15959;DHT22;8078;47.822;9.402;2022-10-31T00:14:06;14.40;99.90
15959;DHT22;8078;47.822;9.402;2022-10-31T00:16:31;14.30;99.90
15959;DHT22;8078;47.822;9.402;2022-10-31T00:19:03;14.20;99.90
15959;DHT22;8078;47.822;9.402;2022-10-31T00:21:31;14.00;99.90
15959;DHT22;8078;47.822;9.402;2022-10-31T00:23:57;13.80;99.90
15959;DHT22;8078;47.822;9.402;2022-10-31T00:26:24;13.60;99.90
15959;DHT22;8078;47.822;9.402;2022-10-31T00:28:49;13.60;99.90
15959;DHT22;8078;47.822;9.402;2022-10-31T00:31:16;13.50;99.90
15959;DHT22;8078;47.822;9.402;2022-10-31T00:33:42;13.50;99.90
15959;DHT22;8078;47.822;9.402;2022-10-31T00:36:12;13.40;99.90
15959;DHT22;8078;47.822;9.402;2022-10-31T00:38:38;13.50;99.90
15959;DHT22;8078;47.822;9.402;2022-10-31T00:41:03;13.50;99.90
15959;DHT22;8078;47.822;9.402;2022-10-31T00:43:29;13.70;99.90
15959;DHT22;8078;47.822;9.402;2022-10-31T00:45:54;13.70;99.90
15959;DHT22;8078;47.822;9.402;2022-10-31T00:48:20;13.80;99.90
15959;DHT22;8078;47.822;9.402;2022-10-31T00:50:46;13.90;99.90
15959;DHT22;8078;47.822;9.402;2022-10-31T00:53:11;14.10;99.90
15959;DHT22;8078;47.822;9.402;2022-10-31T00:55:37;14.10;99.90
15959;DHT22;8078;47.822;9.402;2022-10-31T00:58:03;14.30;99.90
15959;DHT22;8078;47.822;9.402;2022-10-31T01:00:29;14.40;99.90
15959;DHT22;8078;47.822;9.402;2022-10-31T01:02:54;14.60;99.90
15959;DHT22;8078;47.822;9.402;2022-10-31T01:05:20;14.70;99.90
15959;DHT22;8078;47.822;9.402;2022-10-31T01:07:46;14.70;99.90
15959;DHT22;8078;47.822;9.402;2022-10-31T01:10:11;14.60;99.90
15959;DHT22;8078;47.822;9.402;2022-10-31T01:15:04;14.60;99.90
15959;DHT22;8078;47.822;9.402;2022-10-31T01:17:29;14.60;99.90
15959;DHT22;8078;47.822;9.402;2022-10-31T01:19:55;14.60;99.90
15959;DHT22;8078;47.822;9.402;2022-10-31T01:22:20;14.50;99.90
15959;DHT22;8078;47.822;9.402;2022-10-31T01:24:46;14.50;99.90
15959;DHT22;8078;47.822;9.402;2022-10-31T01:27:11;14.50;99.90
15959;DHT22;8078;47.822;9.402;2022-10-31T01:29:37;14.40;99.90
15959;DHT22;8078;47.822;9.402;2022-10-31T01:32:03;14.30;99.90
15959;DHT22;8078;47.822;9.402;2022-10-31T01:34:28;14.30;99.90
15959;DHT22;8078;47.822;9.402;2022-10-31T01:36:54;14.30;99.90
15959;DHT22;8078;47.822;9.402;2022-10-31T01:39:19;14.20;99.90
15959;DHT22;8078;47.822;9.402;2022-10-31T01:41:48;14.30;99.90
15959;DHT22;8078;47.822;9.402;2022-10-31T01:46:49;14.30;99.90
15959;DHT22;8078;47.822;9.402;2022-10-31T01:49:40;14.30;99.90
15959;DHT22;8078;47.822;9.402;2022-10-31T01:54:57;14.20;99.90
15959;DHT22;8078;47.822;9.402;2022-10-31T01:57:24;14.10;99.90
15959;DHT22;8078;47.822;9.402;2022-10-31T01:59:54;14.30;99.90
15959;DHT22;8078;47.822;9.402;2022-10-31T02:02:20;14.30;99.90
15959;DHT22;8078;47.822;9.402;2022-10-31T02:04:48;14.30;99.90
15959;DHT22;8078;47.822;9.402;2022-10-31T02:07:17;14.40;99.90
15959;DHT22;8078;47.822;9.402;2022-10-31T02:09:44;14.40;99.90
15959;DHT22;8078;47.822;9.402;2022-10-31T02:12:12;14.50;99.90
15959;DHT22;8078;47.822;9.402;2022-10-31T02:14:37;14.50;99.90
15959;DHT22;8078;47.822;9.402;2022-10-31T02:17:04;14.50;99.90
15959;DHT22;8078;47.822;9.402;2022-10-31T02:19:39;14.60;99.90
15959;DHT22;8078;47.822;9.402;2022-10-31T02:31:12;14.40;99.90
15959;DHT22;8078;47.822;9.402;2022-10-31T02:33:33;14.50;99.90
15959;DHT22;8078;47.822;9.402;2022-10-31T02:38:34;14.20;99.90
15959;DHT22;8078;47.822;9.402;2022-10-31T02:41:18;14.10;99.90
15959;DHT22;8078;47.822;9.402;2022-10-31T02:44:16;14.10;99.90
15959;DHT22;8078;47.822;9.402;2022-10-31T02:46:48;14.10;99.90
15959;DHT22;8078;47.822;9.402;2022-10-31T02:49:27;14.10;99.90
15959;DHT22;8078;47.822;9.402;2022-10-31T02:51:55;14.30;99.90
15959;DHT22;8078;47.822;9.402;2022-10-31T02:54:26;14.40;99.90
15959;DHT22;8078;47.822;9.402;2022-10-31T02:57:00;14.40;99.90
15959;DHT22;8078;47.822;9.402;2022-10-31T02:59:28;14.30;99.90
15959;DHT22;8078;47.822;9.402;2022-10-31T03:02:09;14.30;99.90
15959;DHT22;8078;47.822;9.402;2022-10-31T03:08:29;14.20;99.90
15959;DHT22;8078;47.822;9.402;2022-10-31T03:10:57;14.10;99.90
15959;DHT22;8078;47.822;9.402;2022-10-31T03:13:34;14.00;99.90
15959;DHT22;8078;47.822;9.402;2022-10-31T03:16:16;14.00;99.90
15959;DHT22;8078;47.822;9.402;2022-10-31T03:19:01;13.90;99.90
15959;DHT22;8078;47.822;9.402;2022-10-31T03:21:34;13.80;99.90
15959;DHT22;8078;47.822;9.402;2022-10-31T03:24:02;13.70;99.90
15959;DHT22;8078;47.822;9.402;2022-10-31T03:26:30;13.70;99.90
15959;DHT22;8078;47.822;9.402;2022-10-31T03:29:07;13.70;99.90
15959;DHT22;8078;47.822;9.402;2022-10-31T03:31:37;13.60;99.90
15959;DHT22;8078;47.822;9.402;2022-10-31T03:34:06;13.70;99.90
15959;DHT22;8078;47.822;9.402;2022-10-31T03:36:34;13.70;99.90
15959;DHT22;8078;47.822;9.402;2022-10-31T03:39:02;13.70;99.90
15959;DHT22;8078;47.822;9.402;2022-10-31T03:41:32;13.60;99.90
15959;DHT22;8078;47.822;9.402;2022-10-31T03:44:04;13.50;99.90
15959;DHT22;8078;47.822;9.402;2022-10-31T03:46:31;13.60;99.90
15959;DHT22;8078;47.822;9.402;2022-10-31T03:48:58;13.70;99.90
15959;DHT22;8078;47.822;9.402;2022-10-31T03:54:12;13.90;99.90
15959;DHT22;8078;47.822;9.402;2022-10-31T03:56:50;13.90;99.90
15959;DHT22;8078;47.822;9.402;2022-10-31T03:59:47;13.60;99.90
15959;DHT22;8078;47.822;9.402;2022-10-31T04:02:19;13.40;99.90
15959;DHT22;8078;47.822;9.402;2022-10-31T04:04:46;13.30;99.90
15959;DHT22;8078;47.822;9.402;2022-10-31T04:07:13;13.00;99.90
15959;DHT22;8078;47.822;9.402;2022-10-31T04:09:42;12.80;99.90
15959;DHT22;8078;47.822;9.402;2022-10-31T04:12:11;12.70;99.90
15959;DHT22;8078;47.822;9.402;2022-10-31T04:14:42;12.50;99.90
15959;DHT22;8078;47.822;9.402;2022-10-31T04:17:15;12.30;99.90
15959;DHT22;8078;47.822;9.402;2022-10-31T04:19:40;12.20;99.90
15959;DHT22;8078;47.822;9.402;2022-10-31T04:22:06;12.10;99.90
15959;DHT22;8078;47.822;9.402;2022-10-31T04:24:32;12.30;99.90
15959;DHT22;8078;47.822;9.402;2022-10-31T04:26:57;12.20;99.90
15959;DHT22;8078;47.822;9.402;2022-10-31T04:29:23;12.30;99.90
15959;DHT22;8078;47.822;9.402;2022-10-31T04:31:48;12.30;99.90
15959;DHT22;8078;47.822;9.402;2022-10-31T04:34:14;12.30;99.90
15959;DHT22;8078;47.822;9.402;2022-10-31T04:36:39;12.20;99.90
15959;DHT22;8078;47.822;9.402;2022-10-31T04:39:05;12.10;99.90
15959;DHT22;8078;47.822;9.402;2022-10-31T04:41:30;12.20;99.90
15959;DHT22;8078;47.822;9.402;2022-10-31T04:43:56;12.30;99.90
15959;DHT22;8078;47.822;9.402;2022-10-31T04:46:21;12.40;99.90
15959;DHT22;8078;47.822;9.402;2022-10-31T04:48:48;12.40;99.90
15959;DHT22;8078;47.822;9.402;2022-10-31T04:51:13;12.60;99.90
15959;DHT22;8078;47.822;9.402;2022-10-31T04:53:39;12.50;99.90
15959;DHT22;8078;47.822;9.402;2022-10-31T04:56:04;12.50;99.90
15959;DHT22;8078;47.822;9.402;2022-10-31T04:58:30;12.60;99.90
15959;DHT22;8078;47.822;9.402;2022-10-31T05:00:56;12.60;99.90
15959;DHT22;8078;47.822;9.402;2022-10-31T05:03:22;12.60;99.90
15959;DHT22;8078;47.822;9.402;2022-10-31T05:05:47;12.60;99.90
15959;DHT22;8078;47.822;9.402;2022-10-31T05:08:13;12.50;99.90
15959;DHT22;8078;47.822;9.402;2022-10-31T05:10:39;12.40;99.90
15959;DHT22;8078;47.822;9.402;2022-10-31T05:13:05;12.30;99.90
15959;DHT22;8078;47.822;9.402;2022-10-31T05:15:31;12.20;99.90
15959;DHT22;8078;47.822;9.402;2022-10-31T05:17:56;12.10;99.90
15959;DHT22;8078;47.822;9.402;2022-10-31T05:20:24;12.20;99.90
15959;DHT22;8078;47.822;9.402;2022-10-31T05:22:52;12.30;99.90
15959;DHT22;8078;47.822;9.402;2022-10-31T05:25:20;12.30;99.90
15959;DHT22;8078;47.822;9.402;2022-10-31T05:27:47;12.20;99.90
15959;DHT22;8078;47.822;9.402;2022-10-31T05:30:15;12.10;99.90
15959;DHT22;8078;47.822;9.402;2022-10-31T05:32:43;12.20;99.90
15959;DHT22;8078;47.822;9.402;2022-10-31T05:35:12;12.20;99.90
15959;DHT22;8078;47.822;9.402;2022-10-31T05:37:37;12.10;99.90
15959;DHT22;8078;47.822;9.402;2022-10-31T05:40:05;12.10;99.90
15959;DHT22;8078;47.822;9.402;2022-10-31T05:42:31;12.20;99.90
15959;DHT22;8078;47.822;9.402;2022-10-31T05:44:56;12.20;99.90
15959;DHT22;8078;47.822;9.402;2022-10-31T05:47:22;12.20;99.90
15959;DHT22;8078;47.822;9.402;2022-10-31T05:49:48;12.50;99.90
15959;DHT22;8078;47.822;9.402;2022-10-31T05:52:13;12.30;99.90
15959;DHT22;8078;47.822;9.402;2022-10-31T05:54:39;12.10;99.90
15959;DHT22;8078;47.822;9.402;2022-10-31T05:57:05;12.10;99.90
15959;DHT22;8078;47.822;9.402;2022-10-31T05:59:30;12.20;99.90
15959;DHT22;8078;47.822;9.402;2022-10-31T06:01:56;12.10;99.90
15959;DHT22;8078;47.822;9.402;2022-10-31T06:04:21;12.30;99.90
15959;DHT22;8078;47.822;9.402;2022-10-31T06:06:47;12.50;99.90
15959;DHT22;8078;47.822;9.402;2022-10-31T06:09:12;12.50;99.90
15959;DHT22;8078;47.822;9.402;2022-10-31T06:11:38;12.70;99.90
15959;DHT22;8078;47.822;9.402;2022-10-31T06:14:04;12.60;99.90
15959;DHT22;8078;47.822;9.402;2022-10-31T06:16:30;12.60;99.90
15959;DHT22;8078;47.822;9.402;2022-10-31T06:18:56;12.70;99.90
15959;DHT22;8078;47.822;9.402;2022-10-31T06:21:21;12.90;99.90
15959;DHT22;8078;47.822;9.402;2022-10-31T06:23:47;13.10;99.90
15959;DHT22;8078;47.822;9.402;2022-10-31T06:26:13;13.20;99.90
15959;DHT22;8078;47.822;9.402;2022-10-31T06:28:38;13.40;99.90
15959;DHT22;8078;47.822;9.402;2022-10-31T06:31:04;13.50;99.90
15959;DHT22;8078;47.822;9.402;2022-10-31T06:33:29;13.50;99.90
15959;DHT22;8078;47.822;9.402;2022-10-31T06:35:55;13.50;99.90
15959;DHT22;8078;47.822;9.402;2022-10-31T06:38:21;13.70;99.90
15959;DHT22;8078;47.822;9.402;2022-10-31T06:40:46;14.00;99.90
15959;DHT22;8078;47.822;9.402;2022-10-31T06:43:12;14.10;99.90
15959;DHT22;8078;47.822;9.402;2022-10-31T06:45:39;14.10;99.90
15959;DHT22;8078;47.822;9.402;2022-10-31T06:48:07;14.10;99.90
15959;DHT22;8078;47.822;9.402;2022-10-31T06:50:33;14.00;99.90
15959;DHT22;8078;47.822;9.402;2022-10-31T06:52:58;14.10;99.90
15959;DHT22;8078;47.822;9.402;2022-10-31T06:55:25;14.10;99.90
15959;DHT22;8078;47.822;9.402;2022-10-31T06:57:58;14.20;99.90
15959;DHT22;8078;47.822;9.402;2022-10-31T07:00:26;14.30;99.90
15959;DHT22;8078;47.822;9.402;2022-10-31T07:02:54;14.40;99.90
15959;DHT22;8078;47.822;9.402;2022-10-31T07:05:19;14.50;99.90
15959;DHT22;8078;47.822;9.402;2022-10-31T07:07:45;14.50;99.90
15959;DHT22;8078;47.822;9.402;2022-10-31T07:10:10;14.60;99.90
15959;DHT22;8078;47.822;9.402;2022-10-31T07:12:36;14.70;99.90
15959;DHT22;8078;47.822;9.402;2022-10-31T07:15:01;14.80;99.90
15959;DHT22;8078;47.822;9.402;2022-10-31T07:17:27;14.90;99.90
15959;DHT22;8078;47.822;9.402;2022-10-31T07:19:53;15.10;99.90
15959;DHT22;8078;47.822;9.402;2022-10-31T07:22:18;15.20;99.90
15959;DHT22;8078;47.822;9.402;2022-10-31T07:24:44;15.40;99.90
15959;DHT22;8078;47.822;9.402;2022-10-31T07:27:09;15.40;99.90
15959;DHT22;8078;47.822;9.402;2022-10-31T07:29:35;15.40;99.90
15959;DHT22;8078;47.822;9.402;2022-10-31T07:32:00;15.50;99.90
15959;DHT22;8078;47.822;9.402;2022-10-31T07:34:27;15.70;99.90
15959;DHT22;8078;47.822;9.402;2022-10-31T07:36:52;15.90;99.90
15959;DHT22;8078;47.822;9.402;2022-10-31T07:39:18;16.00;99.90
15959;DHT22;8078;47.822;9.402;2022-10-31T07:41:43;15.90;99.90
15959;DHT22;8078;47.822;9.402;2022-10-31T07:44:09;15.90;99.90
15959;DHT22;8078;47.822;9.402;2022-10-31T07:46:34;15.90;99.90
15959;DHT22;8078;47.822;9.402;2022-10-31T07:49:00;16.00;99.90
15959;DHT22;8078;47.822;9.402;2022-10-31T07:51:25;16.00;99.90
15959;DHT22;8078;47.822;9.402;2022-10-31T07:53:51;16.10;99.90
15959;DHT22;8078;47.822;9.402;2022-10-31T07:56:17;16.00;99.90
15959;DHT22;8078;47.822;9.402;2022-10-31T07:58:43;16.10;99.90
15959;DHT22;8078;47.822;9.402;2022-10-31T08:01:08;16.10;99.90
15959;DHT22;8078;47.822;9.402;2022-10-31T08:03:34;16.20;99.90
15959;DHT22;8078;47.822;9.402;2022-10-31T08:05:59;16.20;99.90
15959;DHT22;8078;47.822;9.402;2022-10-31T08:08:25;16.20;99.90
15959;DHT22;8078;47.822;9.402;2022-10-31T08:10:54;16.20;99.90
15959;DHT22;8078;47.822;9.402;2022-10-31T08:13:20;16.30;99.90
15959;DHT22;8078;47.822;9.402;2022-10-31T08:15:45;16.30;99.90
15959;DHT22;8078;47.822;9.402;2022-10-31T08:18:15;16.30;99.90
15959;DHT22;8078;47.822;9.402;2022-10-31T08:20:42;16.40;99.90
15959;DHT22;8078;47.822;9.402;2022-10-31T08:23:09;16.40;99.90
15959;DHT22;8078;47.822;9.402;2022-10-31T08:25:35;16.30;99.90
15959;DHT22;8078;47.822;9.402;2022-10-31T08:28:01;16.40;99.90
15959;DHT22;8078;47.822;9.402;2022-10-31T08:30:29;16.50;99.90
15959;DHT22;8078;47.822;9.402;2022-10-31T08:33:15;16.50;99.90
15959;DHT22;8078;47.822;9.402;2022-10-31T08:35:42;16.50;99.90
15959;DHT22;8078;47.822;9.402;2022-10-31T08:38:09;16.70;99.90
15959;DHT22;8078;47.822;9.402;2022-10-31T08:40:35;16.90;99.90
15959;DHT22;8078;47.822;9.402;2022-10-31T08:43:13;16.90;99.90
15959;DHT22;8078;47.822;9.402;2022-10-31T08:45:39;17.00;99.90
15959;DHT22;8078;47.822;9.402;2022-10-31T08:48:08;16.50;99.90
15959;DHT22;8078;47.822;9.402;2022-10-31T08:50:35;16.60;99.90
15959;DHT22;8078;47.822;9.402;2022-10-31T08:53:02;16.70;99.90
15959;DHT22;8078;47.822;9.402;2022-10-31T08:55:28;16.80;99.90
15959;DHT22;8078;47.822;9.402;2022-10-31T08:57:57;16.80;99.90
15959;DHT22;8078;47.822;9.402;2022-10-31T09:00:23;16.90;99.90
15959;DHT22;8078;47.822;9.402;2022-10-31T09:03:00;16.90;99.90
15959;DHT22;8078;47.822;9.402;2022-10-31T09:05:26;17.00;99.90
15959;DHT22;8078;47.822;9.402;2022-10-31T09:07:56;17.10;99.90
15959;DHT22;8078;47.822;9.402;2022-10-31T09:10:22;17.20;99.90
15959;DHT22;8078;47.822;9.402;2022-10-31T09:12:55;17.10;99.90
15959;DHT22;8078;47.822;9.402;2022-10-31T09:15:20;17.00;99.90
15959;DHT22;8078;47.822;9.402;2022-10-31T09:17:47;17.10;99.90
15959;DHT22;8078;47.822;9.402;2022-10-31T09:20:13;17.20;99.90
15959;DHT22;8078;47.822;9.402;2022-10-31T09:22:38;17.30;99.90
15959;DHT22;8078;47.822;9.402;2022-10-31T09:25:04;17.50;99.90
15959;DHT22;8078;47.822;9.402;2022-10-31T09:27:30;17.60;99.90
15959;DHT22;8078;47.822;9.402;2022-10-31T09:29:55;17.40;99.90
15959;DHT22;8078;47.822;9.402;2022-10-31T09:32:21;17.10;99.90
15959;DHT22;8078;47.822;9.402;2022-10-31T09:34:46;17.40;99.90
15959;DHT22;8078;47.822;9.402;2022-10-31T09:37:12;17.60;99.90
15959;DHT22;8078;47.822;9.402;2022-10-31T09:39:37;17.70;99.90
15959;DHT22;8078;47.822;9.402;2022-10-31T09:45:10;18.00;99.90
15959;DHT22;8078;47.822;9.402;2022-10-31T09:50:53;18.20;99.90
15959;DHT22;8078;47.822;9.402;2022-10-31T09:53:39;18.40;99.90
15959;DHT22;8078;47.822;9.402;2022-10-31T09:56:11;18.60;99.90
15959;DHT22;8078;47.822;9.402;2022-10-31T09:58:42;18.90;99.90
15959;DHT22;8078;47.822;9.402;2022-10-31T10:04:39;19.10;99.90
15959;DHT22;8078;47.822;9.402;2022-10-31T10:07:27;18.90;99.90
15959;DHT22;8078;47.822;9.402;2022-10-31T10:09:53;18.70;99.90
15959;DHT22;8078;47.822;9.402;2022-10-31T10:24:03;18.90;99.90
15959;DHT22;8078;47.822;9.402;2022-10-31T10:26:51;18.90;99.90
15959;DHT22;8078;47.822;9.402;2022-10-31T10:29:37;18.70;99.90
15959;DHT22;8078;47.822;9.402;2022-10-31T10:32:13;18.70;99.90
15959;DHT22;8078;47.822;9.402;2022-10-31T10:34:45;18.70;99.90
15959;DHT22;8078;47.822;9.402;2022-10-31T10:37:28;18.60;99.90
15959;DHT22;8078;47.822;9.402;2022-10-31T10:40:11;18.70;99.90
15959;DHT22;8078;47.822;9.402;2022-10-31T10:42:39;18.60;99.90
15959;DHT22;8078;47.822;9.402;2022-10-31T10:45:23;18.90;99.90
15959;DHT22;8078;47.822;9.402;2022-10-31T10:50:51;19.50;99.90
15959;DHT22;8078;47.822;9.402;2022-10-31T10:53:42;19.60;99.90
15959;DHT22;8078;47.822;9.402;2022-10-31T10:56:59;19.80;99.90
15959;DHT22;8078;47.822;9.402;2022-10-31T10:59:26;20.30;99.90
15959;DHT22;8078;47.822;9.402;2022-10-31T11:01:53;20.50;99.90
15959;DHT22;8078;47.822;9.402;2022-10-31T11:04:39;20.70;99.90
15959;DHT22;8078;47.822;9.402;2022-10-31T11:07:07;20.90;99.90
15959;DHT22;8078;47.822;9.402;2022-10-31T11:09:35;20.80;99.90
15959;DHT22;8078;47.822;9.402;2022-10-31T11:12:08;20.80;99.90
15959;DHT22;8078;47.822;9.402;2022-10-31T11:14:45;21.10;99.90
15959;DHT22;8078;47.822;9.402;2022-10-31T11:17:30;21.00;99.90
15959;DHT22;8078;47.822;9.402;2022-10-31T11:20:04;20.90;99.90
15959;DHT22;8078;47.822;9.402;2022-10-31T11:22:30;20.70;99.90
15959;DHT22;8078;47.822;9.402;2022-10-31T11:24:56;20.50;99.90
15959;DHT22;8078;47.822;9.402;2022-10-31T11:27:24;20.30;99.90
15959;DHT22;8078;47.822;9.402;2022-10-31T11:29:50;20.10;99.90
15959;DHT22;8078;47.822;9.402;2022-10-31T11:32:26;19.80;99.90
15959;DHT22;8078;47.822;9.402;2022-10-31T11:34:55;19.60;99.90
15959;DHT22;8078;47.822;9.402;2022-10-31T11:37:26;19.30;99.90
15959;DHT22;8078;47.822;9.402;2022-10-31T11:39:58;18.50;99.90
15959;DHT22;8078;47.822;9.402;2022-10-31T11:42:34;18.10;99.90
15959;DHT22;8078;47.822;9.402;2022-10-31T11:45:16;17.50;99.90
15959;DHT22;8078;47.822;9.402;2022-10-31T11:47:46;17.60;99.90
15959;DHT22;8078;47.822;9.402;2022-10-31T11:50:20;17.40;99.90
15959;DHT22;8078;47.822;9.402;2022-10-31T11:52:46;17.20;99.90
15959;DHT22;8078;47.822;9.402;2022-10-31T11:57:47;17.10;99.90
15959;DHT22;8078;47.822;9.402;2022-10-31T12:00:33;17.10;99.90
15959;DHT22;8078;47.822;9.402;2022-10-31T12:06:03;16.90;99.90
15959;DHT22;8078;47.822;9.402;2022-10-31T12:08:32;16.70;99.90
15959;DHT22;8078;47.822;9.402;2022-10-31T12:17:15;16.50;99.90
15959;DHT22;8078;47.822;9.402;2022-10-31T12:19:58;16.60;99.90
15959;DHT22;8078;47.822;9.402;2022-10-31T12:25:24;17.20;99.90
15959;DHT22;8078;47.822;9.402;2022-10-31T12:30:46;18.00;99.90
15959;DHT22;8078;47.822;9.402;2022-10-31T12:39:02;18.60;99.90
15959;DHT22;8078;47.822;9.402;2022-10-31T12:44:06;18.90;99.90
15959;DHT22;8078;47.822;9.402;2022-10-31T12:57:39;18.50;99.90
15959;DHT22;8078;47.822;9.402;2022-10-31T13:05:19;18.00;99.90
15959;DHT22;8078;47.822;9.402;2022-10-31T13:10:29;19.20;99.90
15959;DHT22;8078;47.822;9.402;2022-10-31T13:13:03;19.60;99.90
15959;DHT22;8078;47.822;9.402;2022-10-31T13:15:38;18.10;99.90
15959;DHT22;8078;47.822;9.402;2022-10-31T13:18:15;17.60;99.90
15959;DHT22;8078;47.822;9.402;2022-10-31T13:20:45;17.40;99.90
15959;DHT22;8078;47.822;9.402;2022-10-31T13:23:32;17.70;99.90
15959;DHT22;8078;47.822;9.402;2022-10-31T13:26:03;18.00;99.90
15959;DHT22;8078;47.822;9.402;2022-10-31T13:28:44;18.50;99.90
15959;DHT22;8078;47.822;9.402;2022-10-31T13:31:11;19.20;99.90
15959;DHT22;8078;47.822;9.402;2022-10-31T13:34:10;19.70;99.90
15959;DHT22;8078;47.822;9.402;2022-10-31T13:36:38;20.10;99.90
15959;DHT22;8078;47.822;9.402;2022-10-31T13:39:40;20.40;99.90
15959;DHT22;8078;47.822;9.402;2022-10-31T13:45:16;20.20;99.90
15959;DHT22;8078;47.822;9.402;2022-10-31T13:47:42;20.20;99.90
15959;DHT22;8078;47.822;9.402;2022-10-31T13:50:29;20.00;99.90
15959;DHT22;8078;47.822;9.402;2022-10-31T13:53:20;19.40;99.90
15959;DHT22;8078;47.822;9.402;2022-10-31T13:56:01;20.40;99.90
15959;DHT22;8078;47.822;9.402;2022-10-31T13:58:30;21.20;99.90
15959;DHT22;8078;47.822;9.402;2022-10-31T14:03:26;23.30;99.90
15959;DHT22;8078;47.822;9.402;2022-10-31T14:05:55;24.40;99.90
15959;DHT22;8078;47.822;9.402;2022-10-31T14:08:23;25.30;99.90
15959;DHT22;8078;47.822;9.402;2022-10-31T14:10:51;26.20;99.90
15959;DHT22;8078;47.822;9.402;2022-10-31T14:13:26;26.90;99.90
15959;DHT22;8078;47.822;9.402;2022-10-31T14:18:28;27.70;99.90
15959;DHT22;8078;47.822;9.402;2022-10-31T14:20:55;28.20;99.90
15959;DHT22;8078;47.822;9.402;2022-10-31T14:31:44;27.30;99.90
15959;DHT22;8078;47.822;9.402;2022-10-31T14:37:12;27.50;99.90
15959;DHT22;8078;47.822;9.402;2022-10-31T14:40:02;27.10;99.90
15959;DHT22;8078;47.822;9.402;2022-10-31T14:51:13;27.10;99.90
15959;DHT22;8078;47.822;9.402;2022-10-31T14:53:52;27.40;99.90
15959;DHT22;8078;47.822;9.402;2022-10-31T14:56:29;27.00;99.90
15959;DHT22;8078;47.822;9.402;2022-10-31T14:58:57;26.10;99.90
15959;DHT22;8078;47.822;9.402;2022-10-31T15:01:32;25.60;99.90
15959;DHT22;8078;47.822;9.402;2022-10-31T15:04:11;25.50;99.90
15959;DHT22;8078;47.822;9.402;2022-10-31T15:06:45;25.80;99.90
15959;DHT22;8078;47.822;9.402;2022-10-31T15:09:22;26.00;99.90
15959;DHT22;8078;47.822;9.402;2022-10-31T15:11:48;26.20;99.90
15959;DHT22;8078;47.822;9.402;2022-10-31T15:14:23;26.40;99.90
15959;DHT22;8078;47.822;9.402;2022-10-31T15:16:49;26.60;99.90
15959;DHT22;8078;47.822;9.402;2022-10-31T15:19:24;26.40;99.90
15959;DHT22;8078;47.822;9.402;2022-10-31T15:21:52;26.40;99.90
15959;DHT22;8078;47.822;9.402;2022-10-31T15:24:18;26.20;99.90
15959;DHT22;8078;47.822;9.402;2022-10-31T15:26:49;25.80;99.90
15959;DHT22;8078;47.822;9.402;2022-10-31T15:29:20;25.20;99.90
15959;DHT22;8078;47.822;9.402;2022-10-31T15:31:55;24.40;99.90
15959;DHT22;8078;47.822;9.402;2022-10-31T15:34:40;23.60;99.90
15959;DHT22;8078;47.822;9.402;2022-10-31T15:37:14;23.10;99.90
15959;DHT22;8078;47.822;9.402;2022-10-31T15:39:41;22.30;99.90
15959;DHT22;8078;47.822;9.402;2022-10-31T15:42:29;20.90;99.90
15959;DHT22;8078;47.822;9.402;2022-10-31T15:47:35;18.80;99.90
15959;DHT22;8078;47.822;9.402;2022-10-31T15:50:02;18.30;99.90
15959;DHT22;8078;47.822;9.402;2022-10-31T15:52:35;17.70;99.90
15959;DHT22;8078;47.822;9.402;2022-10-31T15:55:15;17.10;99.90
15959;DHT22;8078;47.822;9.402;2022-10-31T15:57:47;16.50;99.90
15959;DHT22;8078;47.822;9.402;2022-10-31T16:00:27;16.20;99.90
15959;DHT22;8078;47.822;9.402;2022-10-31T16:03:23;15.80;99.90
15959;DHT22;8078;47.822;9.402;2022-10-31T16:05:54;15.40;99.90
15959;DHT22;8078;47.822;9.402;2022-10-31T16:10:56;14.70;99.90
15959;DHT22;8078;47.822;9.402;2022-10-31T16:16:42;14.40;99.90
15959;DHT22;8078;47.822;9.402;2022-10-31T16:19:34;14.10;99.90
15959;DHT22;8078;47.822;9.402;2022-10-31T16:22:06;14.00;99.90
15959;DHT22;8078;47.822;9.402;2022-10-31T16:24:43;13.80;99.90
15959;DHT22;8078;47.822;9.402;2022-10-31T16:27:19;13.70;99.90
15959;DHT22;8078;47.822;9.402;2022-10-31T16:29:46;13.50;99.90
15959;DHT22;8078;47.822;9.402;2022-10-31T16:32:27;13.40;99.90
15959;DHT22;8078;47.822;9.402;2022-10-31T16:37:39;13.20;99.90
15959;DHT22;8078;47.822;9.402;2022-10-31T16:40:05;13.10;99.90
15959;DHT22;8078;47.822;9.402;2022-10-31T16:42:30;13.00;99.90
15959;DHT22;8078;47.822;9.402;2022-10-31T16:44:56;13.00;99.90
15959;DHT22;8078;47.822;9.402;2022-10-31T16:47:22;13.00;99.90
15959;DHT22;8078;47.822;9.402;2022-10-31T16:49:48;13.00;99.90
15959;DHT22;8078;47.822;9.402;2022-10-31T16:52:15;13.00;99.90
15959;DHT22;8078;47.822;9.402;2022-10-31T16:54:41;12.90;99.90
15959;DHT22;8078;47.822;9.402;2022-10-31T16:57:14;13.00;99.90
15959;DHT22;8078;47.822;9.402;2022-10-31T16:59:41;12.90;99.90
15959;DHT22;8078;47.822;9.402;2022-10-31T17:02:13;12.80;99.90
15959;DHT22;8078;47.822;9.402;2022-10-31T17:04:39;12.70;99.90
15959;DHT22;8078;47.822;9.402;2022-10-31T17:07:05;12.60;99.90
15959;DHT22;8078;47.822;9.402;2022-10-31T17:09:30;12.60;99.90
15959;DHT22;8078;47.822;9.402;2022-10-31T17:11:56;12.50;99.90
15959;DHT22;8078;47.822;9.402;2022-10-31T17:14:21;12.40;99.90
15959;DHT22;8078;47.822;9.402;2022-10-31T17:16:47;12.40;99.90
15959;DHT22;8078;47.822;9.402;2022-10-31T17:19:12;12.40;99.90
15959;DHT22;8078;47.822;9.402;2022-10-31T17:21:39;12.30;99.90
15959;DHT22;8078;47.822;9.402;2022-10-31T17:24:05;12.30;99.90
15959;DHT22;8078;47.822;9.402;2022-10-31T17:26:31;12.30;99.90
15959;DHT22;8078;47.822;9.402;2022-10-31T17:28:56;12.20;99.90
15959;DHT22;8078;47.822;9.402;2022-10-31T17:31:28;12.20;99.90
15959;DHT22;8078;47.822;9.402;2022-10-31T17:33:55;12.30;99.90
15959;DHT22;8078;47.822;9.402;2022-10-31T17:36:21;12.30;99.90
15959;DHT22;8078;47.822;9.402;2022-10-31T17:38:46;12.30;99.90
15959;DHT22;8078;47.822;9.402;2022-10-31T17:41:12;12.30;99.90
15959;DHT22;8078;47.822;9.402;2022-10-31T17:43:38;12.30;99.90
15959;DHT22;8078;47.822;9.402;2022-10-31T17:46:03;12.20;99.90
15959;DHT22;8078;47.822;9.402;2022-10-31T17:48:29;12.20;99.90
15959;DHT22;8078;47.822;9.402;2022-10-31T17:51:00;12.20;99.90
15959;DHT22;8078;47.822;9.402;2022-10-31T17:53:28;12.30;99.90
15959;DHT22;8078;47.822;9.402;2022-10-31T17:55:53;12.30;99.90
15959;DHT22;8078;47.822;9.402;2022-10-31T17:58:23;12.30;99.90
15959;DHT22;8078;47.822;9.402;2022-10-31T18:00:49;12.20;99.90
15959;DHT22;8078;47.822;9.402;2022-10-31T18:03:14;11.70;99.90
15959;DHT22;8078;47.822;9.402;2022-10-31T18:05:58;12.20;99.90
15959;DHT22;8078;47.822;9.402;2022-10-31T18:08:26;12.20;99.90
15959;DHT22;8078;47.822;9.402;2022-10-31T18:10:52;12.10;99.90
15959;DHT22;8078;47.822;9.402;2022-10-31T18:13:17;12.10;99.90
15959;DHT22;8078;47.822;9.402;2022-10-31T18:15:43;12.10;99.90